sensor_id;sensor_type;location;lat;lon;timestamp;temperature;humidity
3628;DHT22;1830;49.000;12.074;2023-05-10T00:00:10;14.50;97.60
3628;DHT22;1830;49.000;12.074;2023-05-10T00:02:39;14.60;97.80
3628;DHT22;1830;49.000;12.074;2023-05-10T00:05:06;14.50;98.00
3628;DHT22;1830;49.000;12.074;2023-05-10T00:07:33;14.50;98.20
3628;DHT22;1830;49.000;12.074;2023-05-10T00:10:00;14.50;98.10
3628;DHT22;1830;49.000;12.074;2023-05-10T00:12:27;14.50;98.30
3628;DHT22;1830;49.000;12.074;2023-05-10T00:14:54;14.50;98.20
3628;DHT22;1830;49.000;12.074;2023-05-10T00:17:20;14.50;98.20
3628;DHT22;1830;49.000;12.074;2023-05-10T00:19:49;14.60;98.10
3628;DHT22;1830;49.000;12.074;2023-05-10T00:22:15;14.60;98.20
3628;DHT22;1830;49.000;12.074;2023-05-10T00:24:42;14.60;98.40
3628;DHT22;1830;49.000;12.074;2023-05-10T00:27:09;14.40;98.40
3628;DHT22;1830;49.000;12.074;2023-05-10T00:29:36;14.40;98.70
3628;DHT22;1830;49.000;12.074;2023-05-10T00:32:03;14.40;99.00
3628;DHT22;1830;49.000;12.074;2023-05-10T00:34:29;14.40;98.80
3628;DHT22;1830;49.000;12.074;2023-05-10T00:36:58;14.30;98.80
3628;DHT22;1830;49.000;12.074;2023-05-10T00:39:25;14.30;98.60
3628;DHT22;1830;49.000;12.074;2023-05-10T00:41:52;14.30;98.50
3628;DHT22;1830;49.000;12.074;2023-05-10T00:44:18;14.30;98.80
3628;DHT22;1830;49.000;12.074;2023-05-10T00:46:46;14.30;98.80
3628;DHT22;1830;49.000;12.074;2023-05-10T00:49:14;14.30;98.70
3628;DHT22;1830;49.000;12.074;2023-05-10T00:51:41;14.30;99.00
3628;DHT22;1830;49.000;12.074;2023-05-10T00:54:10;14.30;99.00
3628;DHT22;1830;49.000;12.074;2023-05-10T00:56:37;14.30;98.90
3628;DHT22;1830;49.000;12.074;2023-05-10T00:59:04;14.30;98.90
3628;DHT22;1830;49.000;12.074;2023-05-10T01:01:31;14.20;98.90
3628;DHT22;1830;49.000;12.074;2023-05-10T01:03:58;14.20;98.90
3628;DHT22;1830;49.000;12.074;2023-05-10T01:06:25;14.10;99.10
3628;DHT22;1830;49.000;12.074;2023-05-10T01:08:53;14.10;99.20
3628;DHT22;1830;49.000;12.074;2023-05-10T01:11:21;14.10;99.20
3628;DHT22;1830;49.000;12.074;2023-05-10T01:13:54;14.10;99.30
3628;DHT22;1830;49.000;12.074;2023-05-10T01:16:22;14.10;99.30
3628;DHT22;1830;49.000;12.074;2023-05-10T01:18:49;14.00;99.30
3628;DHT22;1830;49.000;12.074;2023-05-10T01:21:23;14.10;99.50
3628;DHT22;1830;49.000;12.074;2023-05-10T01:24:13;14.10;99.60
3628;DHT22;1830;49.000;12.074;2023-05-10T01:30:08;14.10;99.70
3628;DHT22;1830;49.000;12.074;2023-05-10T01:32:41;14.00;99.80
3628;DHT22;1830;49.000;12.074;2023-05-10T01:35:14;14.00;99.90
3628;DHT22;1830;49.000;12.074;2023-05-10T01:37:46;14.00;99.90
3628;DHT22;1830;49.000;12.074;2023-05-10T01:40:23;13.90;99.90
3628;DHT22;1830;49.000;12.074;2023-05-10T01:42:55;13.90;99.90
3628;DHT22;1830;49.000;12.074;2023-05-10T01:45:30;13.70;99.90
3628;DHT22;1830;49.000;12.074;2023-05-10T01:48:06;13.80;99.90
3628;DHT22;1830;49.000;12.074;2023-05-10T01:50:35;13.80;99.90
3628;DHT22;1830;49.000;12.074;2023-05-10T01:53:07;13.90;99.90
3628;DHT22;1830;49.000;12.074;2023-05-10T01:55:37;13.90;99.90
3628;DHT22;1830;49.000;12.074;2023-05-10T01:58:08;14.00;99.90
3628;DHT22;1830;49.000;12.074;2023-05-10T02:00:36;13.90;99.90
3628;DHT22;1830;49.000;12.074;2023-05-10T02:03:08;13.90;99.90
3628;DHT22;1830;49.000;12.074;2023-05-10T02:05:37;13.90;99.90
3628;DHT22;1830;49.000;12.074;2023-05-10T02:08:07;13.90;99.90
3628;DHT22;1830;49.000;12.074;2023-05-10T02:10:34;13.80;99.90
3628;DHT22;1830;49.000;12.074;2023-05-10T02:13:02;13.70;99.90
3628;DHT22;1830;49.000;12.074;2023-05-10T02:15:30;13.80;99.90
3628;DHT22;1830;49.000;12.074;2023-05-10T02:17:59;13.80;99.90
3628;DHT22;1830;49.000;12.074;2023-05-10T02:20:27;13.80;99.90
3628;DHT22;1830;49.000;12.074;2023-05-10T02:22:56;13.80;99.90
3628;DHT22;1830;49.000;12.074;2023-05-10T02:25:24;13.80;99.90
3628;DHT22;1830;49.000;12.074;2023-05-10T02:27:52;13.60;99.90
3628;DHT22;1830;49.000;12.074;2023-05-10T02:30:20;13.70;99.90
3628;DHT22;1830;49.000;12.074;2023-05-10T02:32:49;13.70;99.90
3628;DHT22;1830;49.000;12.074;2023-05-10T02:35:16;13.70;99.90
3628;DHT22;1830;49.000;12.074;2023-05-10T02:37:45;13.60;99.90
3628;DHT22;1830;49.000;12.074;2023-05-10T02:40:14;13.60;99.90
3628;DHT22;1830;49.000;12.074;2023-05-10T02:42:42;13.60;99.90
3628;DHT22;1830;49.000;12.074;2023-05-10T02:45:13;13.50;99.90
3628;DHT22;1830;49.000;12.074;2023-05-10T02:47:41;13.50;99.90
3628;DHT22;1830;49.000;12.074;2023-05-10T02:50:09;13.60;99.90
3628;DHT22;1830;49.000;12.074;2023-05-10T02:52:40;13.60;99.90
3628;DHT22;1830;49.000;12.074;2023-05-10T02:55:12;13.50;99.90
3628;DHT22;1830;49.000;12.074;2023-05-10T02:57:43;13.50;99.90
3628;DHT22;1830;49.000;12.074;2023-05-10T03:00:11;13.50;99.90
3628;DHT22;1830;49.000;12.074;2023-05-10T03:02:38;13.50;99.90
3628;DHT22;1830;49.000;12.074;2023-05-10T03:05:05;13.40;99.90
3628;DHT22;1830;49.000;12.074;2023-05-10T03:07:32;13.40;99.90
3628;DHT22;1830;49.000;12.074;2023-05-10T03:10:00;13.40;99.90
3628;DHT22;1830;49.000;12.074;2023-05-10T03:12:33;13.40;99.90
3628;DHT22;1830;49.000;12.074;2023-05-10T03:15:11;13.30;99.90
3628;DHT22;1830;49.000;12.074;2023-05-10T03:17:46;13.20;99.90
3628;DHT22;1830;49.000;12.074;2023-05-10T03:20:22;13.10;99.90
3628;DHT22;1830;49.000;12.074;2023-05-10T03:22:53;13.10;99.90
3628;DHT22;1830;49.000;12.074;2023-05-10T03:25:23;13.00;99.90
3628;DHT22;1830;49.000;12.074;2023-05-10T03:27:52;13.00;99.90
3628;DHT22;1830;49.000;12.074;2023-05-10T03:30:19;12.90;99.90
3628;DHT22;1830;49.000;12.074;2023-05-10T03:32:46;13.00;99.90
3628;DHT22;1830;49.000;12.074;2023-05-10T03:35:13;12.90;99.90
3628;DHT22;1830;49.000;12.074;2023-05-10T03:37:40;12.90;99.90
3628;DHT22;1830;49.000;12.074;2023-05-10T03:40:08;12.90;99.90
3628;DHT22;1830;49.000;12.074;2023-05-10T03:42:35;12.90;99.90
3628;DHT22;1830;49.000;12.074;2023-05-10T03:45:38;12.90;99.90
3628;DHT22;1830;49.000;12.074;2023-05-10T03:48:08;12.80;99.90
3628;DHT22;1830;49.000;12.074;2023-05-10T03:50:43;12.80;99.90
3628;DHT22;1830;49.000;12.074;2023-05-10T03:56:33;12.70;99.90
3628;DHT22;1830;49.000;12.074;2023-05-10T03:59:00;12.60;99.90
3628;DHT22;1830;49.000;12.074;2023-05-10T04:01:28;12.50;99.90
3628;DHT22;1830;49.000;12.074;2023-05-10T04:04:05;12.50;99.90
3628;DHT22;1830;49.000;12.074;2023-05-10T04:06:50;12.50;99.90
3628;DHT22;1830;49.000;12.074;2023-05-10T04:09:30;12.50;99.90
3628;DHT22;1830;49.000;12.074;2023-05-10T04:12:00;12.30;99.90
3628;DHT22;1830;49.000;12.074;2023-05-10T04:14:28;12.30;99.90
3628;DHT22;1830;49.000;12.074;2023-05-10T04:16:56;12.30;99.90
3628;DHT22;1830;49.000;12.074;2023-05-10T04:19:22;12.30;99.90
3628;DHT22;1830;49.000;12.074;2023-05-10T04:21:49;12.40;99.90
3628;DHT22;1830;49.000;12.074;2023-05-10T04:24:16;12.40;99.90
3628;DHT22;1830;49.000;12.074;2023-05-10T04:26:43;12.60;99.90
3628;DHT22;1830;49.000;12.074;2023-05-10T04:29:10;12.50;99.90
3628;DHT22;1830;49.000;12.074;2023-05-10T04:31:37;12.50;99.90
3628;DHT22;1830;49.000;12.074;2023-05-10T04:34:05;12.40;99.90
3628;DHT22;1830;49.000;12.074;2023-05-10T04:36:32;12.40;99.90
3628;DHT22;1830;49.000;12.074;2023-05-10T04:39:01;12.30;99.90
3628;DHT22;1830;49.000;12.074;2023-05-10T04:41:29;12.30;99.90
3628;DHT22;1830;49.000;12.074;2023-05-10T04:43:56;12.30;99.90
3628;DHT22;1830;49.000;12.074;2023-05-10T04:46:23;12.30;99.90
3628;DHT22;1830;49.000;12.074;2023-05-10T04:48:50;12.30;99.90
3628;DHT22;1830;49.000;12.074;2023-05-10T04:51:18;12.30;99.90
3628;DHT22;1830;49.000;12.074;2023-05-10T04:53:45;12.30;99.90
3628;DHT22;1830;49.000;12.074;2023-05-10T04:56:12;12.20;99.90
3628;DHT22;1830;49.000;12.074;2023-05-10T04:58:39;12.30;99.90
3628;DHT22;1830;49.000;12.074;2023-05-10T05:01:06;12.30;99.90
3628;DHT22;1830;49.000;12.074;2023-05-10T05:03:33;12.30;99.90
3628;DHT22;1830;49.000;12.074;2023-05-10T05:06:00;12.30;99.90
3628;DHT22;1830;49.000;12.074;2023-05-10T05:08:29;12.30;99.90
3628;DHT22;1830;49.000;12.074;2023-05-10T05:10:55;12.20;99.90
3628;DHT22;1830;49.000;12.074;2023-05-10T05:13:22;12.20;99.90
3628;DHT22;1830;49.000;12.074;2023-05-10T05:15:49;12.20;99.90
3628;DHT22;1830;49.000;12.074;2023-05-10T05:18:16;12.20;99.90
3628;DHT22;1830;49.000;12.074;2023-05-10T05:20:42;12.20;99.90
3628;DHT22;1830;49.000;12.074;2023-05-10T05:23:09;12.20;99.90
3628;DHT22;1830;49.000;12.074;2023-05-10T05:25:37;12.20;99.90
3628;DHT22;1830;49.000;12.074;2023-05-10T05:28:04;12.10;99.90
3628;DHT22;1830;49.000;12.074;2023-05-10T05:30:31;12.10;99.90
3628;DHT22;1830;49.000;12.074;2023-05-10T05:32:58;12.00;99.90
3628;DHT22;1830;49.000;12.074;2023-05-10T05:35:25;12.00;99.90
3628;DHT22;1830;49.000;12.074;2023-05-10T05:37:51;11.90;99.90
3628;DHT22;1830;49.000;12.074;2023-05-10T05:40:18;11.80;99.90
3628;DHT22;1830;49.000;12.074;2023-05-10T05:42:47;11.80;99.90
3628;DHT22;1830;49.000;12.074;2023-05-10T05:45:14;12.00;99.90
3628;DHT22;1830;49.000;12.074;2023-05-10T05:47:41;11.90;99.90
3628;DHT22;1830;49.000;12.074;2023-05-10T05:50:08;12.00;99.90
3628;DHT22;1830;49.000;12.074;2023-05-10T05:52:35;11.90;99.90
3628;DHT22;1830;49.000;12.074;2023-05-10T05:55:05;12.00;99.90
3628;DHT22;1830;49.000;12.074;2023-05-10T05:57:32;12.00;99.90
3628;DHT22;1830;49.000;12.074;2023-05-10T06:00:00;12.00;99.90
3628;DHT22;1830;49.000;12.074;2023-05-10T06:02:28;12.10;99.90
3628;DHT22;1830;49.000;12.074;2023-05-10T06:04:54;12.00;99.90
3628;DHT22;1830;49.000;12.074;2023-05-10T06:07:21;12.10;99.90
3628;DHT22;1830;49.000;12.074;2023-05-10T06:09:48;12.10;99.90
3628;DHT22;1830;49.000;12.074;2023-05-10T06:12:15;12.20;99.90
3628;DHT22;1830;49.000;12.074;2023-05-10T06:14:42;12.10;99.90
3628;DHT22;1830;49.000;12.074;2023-05-10T06:17:10;12.20;99.90
3628;DHT22;1830;49.000;12.074;2023-05-10T06:19:37;12.10;99.90
3628;DHT22;1830;49.000;12.074;2023-05-10T06:22:03;12.10;99.90
3628;DHT22;1830;49.000;12.074;2023-05-10T06:24:30;12.20;99.90
3628;DHT22;1830;49.000;12.074;2023-05-10T06:26:57;12.20;99.90
3628;DHT22;1830;49.000;12.074;2023-05-10T06:29:25;12.20;99.90
3628;DHT22;1830;49.000;12.074;2023-05-10T06:31:52;12.30;99.90
3628;DHT22;1830;49.000;12.074;2023-05-10T06:34:21;12.30;99.90
3628;DHT22;1830;49.000;12.074;2023-05-10T06:36:47;12.30;99.90
3628;DHT22;1830;49.000;12.074;2023-05-10T06:39:14;12.40;99.90
3628;DHT22;1830;49.000;12.074;2023-05-10T06:41:41;12.40;99.90
3628;DHT22;1830;49.000;12.074;2023-05-10T06:44:08;12.50;99.90
3628;DHT22;1830;49.000;12.074;2023-05-10T06:46:35;12.50;99.90
3628;DHT22;1830;49.000;12.074;2023-05-10T06:49:02;12.60;99.90
3628;DHT22;1830;49.000;12.074;2023-05-10T06:51:30;12.60;99.90
3628;DHT22;1830;49.000;12.074;2023-05-10T06:53:58;12.70;99.90
3628;DHT22;1830;49.000;12.074;2023-05-10T06:56:25;12.70;99.90
3628;DHT22;1830;49.000;12.074;2023-05-10T06:58:52;12.70;99.90
3628;DHT22;1830;49.000;12.074;2023-05-10T07:01:19;12.80;99.90
3628;DHT22;1830;49.000;12.074;2023-05-10T07:03:45;12.80;99.90
3628;DHT22;1830;49.000;12.074;2023-05-10T07:06:12;12.90;99.90
3628;DHT22;1830;49.000;12.074;2023-05-10T07:08:40;12.90;99.90
3628;DHT22;1830;49.000;12.074;2023-05-10T07:11:07;12.90;99.90
3628;DHT22;1830;49.000;12.074;2023-05-10T07:13:34;13.00;99.90
3628;DHT22;1830;49.000;12.074;2023-05-10T07:16:01;13.00;99.90
3628;DHT22;1830;49.000;12.074;2023-05-10T07:18:28;13.00;99.90
3628;DHT22;1830;49.000;12.074;2023-05-10T07:20:56;13.00;99.90
3628;DHT22;1830;49.000;12.074;2023-05-10T07:23:23;13.10;99.90
3628;DHT22;1830;49.000;12.074;2023-05-10T07:25:51;13.00;99.90
3628;DHT22;1830;49.000;12.074;2023-05-10T07:28:18;13.10;99.90
3628;DHT22;1830;49.000;12.074;2023-05-10T07:30:45;13.10;99.90
3628;DHT22;1830;49.000;12.074;2023-05-10T07:33:13;13.10;99.90
3628;DHT22;1830;49.000;12.074;2023-05-10T07:35:41;13.10;99.90
3628;DHT22;1830;49.000;12.074;2023-05-10T07:38:07;13.20;99.90
3628;DHT22;1830;49.000;12.074;2023-05-10T07:40:36;13.20;99.90
3628;DHT22;1830;49.000;12.074;2023-05-10T07:43:04;13.30;99.90
3628;DHT22;1830;49.000;12.074;2023-05-10T07:45:32;13.40;99.90
3628;DHT22;1830;49.000;12.074;2023-05-10T07:47:59;13.40;99.90
3628;DHT22;1830;49.000;12.074;2023-05-10T07:50:26;13.50;99.90
3628;DHT22;1830;49.000;12.074;2023-05-10T07:52:53;13.50;99.90
3628;DHT22;1830;49.000;12.074;2023-05-10T07:55:20;13.60;99.90
3628;DHT22;1830;49.000;12.074;2023-05-10T07:57:47;13.70;99.90
3628;DHT22;1830;49.000;12.074;2023-05-10T08:00:18;13.70;99.90
3628;DHT22;1830;49.000;12.074;2023-05-10T08:02:45;13.80;99.90
3628;DHT22;1830;49.000;12.074;2023-05-10T08:05:11;13.80;99.90
3628;DHT22;1830;49.000;12.074;2023-05-10T08:07:38;13.90;99.90
3628;DHT22;1830;49.000;12.074;2023-05-10T08:10:07;13.90;99.90
3628;DHT22;1830;49.000;12.074;2023-05-10T08:12:34;14.00;99.90
3628;DHT22;1830;49.000;12.074;2023-05-10T08:15:00;14.00;99.90
3628;DHT22;1830;49.000;12.074;2023-05-10T08:17:29;14.10;99.90
3628;DHT22;1830;49.000;12.074;2023-05-10T08:19:55;14.20;99.90
3628;DHT22;1830;49.000;12.074;2023-05-10T08:22:22;14.20;99.90
3628;DHT22;1830;49.000;12.074;2023-05-10T08:24:49;14.20;99.90
3628;DHT22;1830;49.000;12.074;2023-05-10T08:27:16;14.20;99.90
3628;DHT22;1830;49.000;12.074;2023-05-10T08:29:44;14.20;99.90
3628;DHT22;1830;49.000;12.074;2023-05-10T08:32:10;14.20;99.90
3628;DHT22;1830;49.000;12.074;2023-05-10T08:34:48;14.30;99.90
3628;DHT22;1830;49.000;12.074;2023-05-10T08:37:34;14.30;99.90
3628;DHT22;1830;49.000;12.074;2023-05-10T08:40:27;14.40;99.90
3628;DHT22;1830;49.000;12.074;2023-05-10T08:47:04;14.40;99.90
3628;DHT22;1830;49.000;12.074;2023-05-10T09:00:32;14.20;99.90
3628;DHT22;1830;49.000;12.074;2023-05-10T09:02:59;14.20;99.90
3628;DHT22;1830;49.000;12.074;2023-05-10T09:05:27;14.20;99.90
3628;DHT22;1830;49.000;12.074;2023-05-10T09:07:54;14.20;99.90
3628;DHT22;1830;49.000;12.074;2023-05-10T09:10:22;14.20;99.90
3628;DHT22;1830;49.000;12.074;2023-05-10T09:12:53;14.30;99.90
3628;DHT22;1830;49.000;12.074;2023-05-10T09:15:22;14.20;99.90
3628;DHT22;1830;49.000;12.074;2023-05-10T09:17:50;14.10;99.90
3628;DHT22;1830;49.000;12.074;2023-05-10T09:20:17;14.10;99.90
3628;DHT22;1830;49.000;12.074;2023-05-10T09:22:45;14.10;99.90
3628;DHT22;1830;49.000;12.074;2023-05-10T09:25:13;14.00;99.90
3628;DHT22;1830;49.000;12.074;2023-05-10T09:27:41;14.10;99.90
3628;DHT22;1830;49.000;12.074;2023-05-10T09:30:09;14.10;99.90
3628;DHT22;1830;49.000;12.074;2023-05-10T09:32:37;14.20;99.90
3628;DHT22;1830;49.000;12.074;2023-05-10T09:35:08;14.30;99.90
3628;DHT22;1830;49.000;12.074;2023-05-10T09:37:35;14.20;99.90
3628;DHT22;1830;49.000;12.074;2023-05-10T09:40:06;14.30;99.90
3628;DHT22;1830;49.000;12.074;2023-05-10T09:42:34;14.40;99.90
3628;DHT22;1830;49.000;12.074;2023-05-10T09:45:03;14.50;99.90
3628;DHT22;1830;49.000;12.074;2023-05-10T09:47:32;14.70;99.90
3628;DHT22;1830;49.000;12.074;2023-05-10T09:49:59;14.70;99.90
3628;DHT22;1830;49.000;12.074;2023-05-10T09:52:30;14.80;99.90
3628;DHT22;1830;49.000;12.074;2023-05-10T09:55:37;14.80;99.90
3628;DHT22;1830;49.000;12.074;2023-05-10T09:59:05;14.80;99.90
3628;DHT22;1830;49.000;12.074;2023-05-10T10:04:47;14.90;99.90
3628;DHT22;1830;49.000;12.074;2023-05-10T10:07:43;15.00;99.90
3628;DHT22;1830;49.000;12.074;2023-05-10T10:10:19;15.00;99.90
3628;DHT22;1830;49.000;12.074;2023-05-10T10:12:46;15.00;99.90
3628;DHT22;1830;49.000;12.074;2023-05-10T10:15:13;15.10;99.90
3628;DHT22;1830;49.000;12.074;2023-05-10T10:17:41;15.10;99.90
3628;DHT22;1830;49.000;12.074;2023-05-10T10:20:10;15.10;99.90
3628;DHT22;1830;49.000;12.074;2023-05-10T10:22:37;15.20;99.90
3628;DHT22;1830;49.000;12.074;2023-05-10T10:25:13;15.30;99.90
3628;DHT22;1830;49.000;12.074;2023-05-10T10:28:02;15.50;99.90
3628;DHT22;1830;49.000;12.074;2023-05-10T10:30:37;15.60;99.90
3628;DHT22;1830;49.000;12.074;2023-05-10T10:33:29;15.70;99.90
3628;DHT22;1830;49.000;12.074;2023-05-10T10:35:59;15.90;99.90
3628;DHT22;1830;49.000;12.074;2023-05-10T10:38:36;16.00;99.90
3628;DHT22;1830;49.000;12.074;2023-05-10T10:41:09;16.10;99.90
3628;DHT22;1830;49.000;12.074;2023-05-10T10:43:37;16.20;99.90
3628;DHT22;1830;49.000;12.074;2023-05-10T10:46:11;16.30;99.90
3628;DHT22;1830;49.000;12.074;2023-05-10T10:48:39;16.50;99.90
3628;DHT22;1830;49.000;12.074;2023-05-10T10:51:06;16.60;99.90
3628;DHT22;1830;49.000;12.074;2023-05-10T10:53:33;16.80;99.90
3628;DHT22;1830;49.000;12.074;2023-05-10T10:56:06;16.70;99.90
3628;DHT22;1830;49.000;12.074;2023-05-10T10:58:35;16.60;99.90
3628;DHT22;1830;49.000;12.074;2023-05-10T11:01:14;16.50;99.90
3628;DHT22;1830;49.000;12.074;2023-05-10T11:03:54;16.30;99.90
3628;DHT22;1830;49.000;12.074;2023-05-10T11:06:29;16.30;99.90
3628;DHT22;1830;49.000;12.074;2023-05-10T11:08:57;16.30;99.90
3628;DHT22;1830;49.000;12.074;2023-05-10T11:11:24;16.50;99.90
3628;DHT22;1830;49.000;12.074;2023-05-10T11:13:51;16.50;99.90
3628;DHT22;1830;49.000;12.074;2023-05-10T11:16:20;16.70;99.90
3628;DHT22;1830;49.000;12.074;2023-05-10T11:18:58;16.90;99.90
3628;DHT22;1830;49.000;12.074;2023-05-10T11:21:27;17.00;99.90
3628;DHT22;1830;49.000;12.074;2023-05-10T11:23:55;17.10;99.90
3628;DHT22;1830;49.000;12.074;2023-05-10T11:26:23;17.10;99.90
3628;DHT22;1830;49.000;12.074;2023-05-10T11:28:52;17.00;99.90
3628;DHT22;1830;49.000;12.074;2023-05-10T11:31:20;16.90;99.90
3628;DHT22;1830;49.000;12.074;2023-05-10T11:33:49;16.80;99.90
3628;DHT22;1830;49.000;12.074;2023-05-10T11:36:18;16.70;99.90
3628;DHT22;1830;49.000;12.074;2023-05-10T11:38:45;16.60;99.90
3628;DHT22;1830;49.000;12.074;2023-05-10T11:41:13;16.60;99.90
3628;DHT22;1830;49.000;12.074;2023-05-10T11:43:40;16.60;99.90
3628;DHT22;1830;49.000;12.074;2023-05-10T11:46:10;16.60;99.90
3628;DHT22;1830;49.000;12.074;2023-05-10T11:48:38;16.70;99.90
3628;DHT22;1830;49.000;12.074;2023-05-10T11:51:06;16.80;99.90
3628;DHT22;1830;49.000;12.074;2023-05-10T11:53:33;16.90;99.90
3628;DHT22;1830;49.000;12.074;2023-05-10T11:56:03;17.00;99.90
3628;DHT22;1830;49.000;12.074;2023-05-10T11:58:31;17.20;99.90
3628;DHT22;1830;49.000;12.074;2023-05-10T12:00:58;17.30;99.90
3628;DHT22;1830;49.000;12.074;2023-05-10T12:03:25;17.30;99.90
3628;DHT22;1830;49.000;12.074;2023-05-10T12:05:54;17.50;99.90
3628;DHT22;1830;49.000;12.074;2023-05-10T12:08:22;17.60;99.90
3628;DHT22;1830;49.000;12.074;2023-05-10T12:10:49;17.60;99.90
3628;DHT22;1830;49.000;12.074;2023-05-10T12:13:17;17.50;99.90
3628;DHT22;1830;49.000;12.074;2023-05-10T12:15:44;17.50;99.90
3628;DHT22;1830;49.000;12.074;2023-05-10T12:18:11;17.50;99.90
3628;DHT22;1830;49.000;12.074;2023-05-10T12:20:38;17.50;99.90
3628;DHT22;1830;49.000;12.074;2023-05-10T12:23:08;17.50;99.90
3628;DHT22;1830;49.000;12.074;2023-05-10T12:25:36;17.50;99.90
3628;DHT22;1830;49.000;12.074;2023-05-10T12:28:04;17.50;99.90
3628;DHT22;1830;49.000;12.074;2023-05-10T12:30:33;17.60;99.90
3628;DHT22;1830;49.000;12.074;2023-05-10T12:33:01;17.50;99.90
3628;DHT22;1830;49.000;12.074;2023-05-10T12:35:30;17.50;99.90
3628;DHT22;1830;49.000;12.074;2023-05-10T12:37:57;17.40;99.90
3628;DHT22;1830;49.000;12.074;2023-05-10T12:40:26;17.30;99.90
3628;DHT22;1830;49.000;12.074;2023-05-10T12:42:52;17.20;99.90
3628;DHT22;1830;49.000;12.074;2023-05-10T12:45:19;17.10;99.90
3628;DHT22;1830;49.000;12.074;2023-05-10T12:47:46;16.90;99.90
3628;DHT22;1830;49.000;12.074;2023-05-10T12:50:13;16.90;99.90
3628;DHT22;1830;49.000;12.074;2023-05-10T12:52:39;16.80;99.90
3628;DHT22;1830;49.000;12.074;2023-05-10T12:55:07;16.70;99.90
3628;DHT22;1830;49.000;12.074;2023-05-10T12:57:35;16.60;99.90
3628;DHT22;1830;49.000;12.074;2023-05-10T13:00:02;16.40;99.90
3628;DHT22;1830;49.000;12.074;2023-05-10T13:02:30;16.40;99.90
3628;DHT22;1830;49.000;12.074;2023-05-10T13:04:57;16.20;99.90
3628;DHT22;1830;49.000;12.074;2023-05-10T13:07:23;16.10;99.90
3628;DHT22;1830;49.000;12.074;2023-05-10T13:09:50;16.00;99.90
3628;DHT22;1830;49.000;12.074;2023-05-10T13:12:17;15.80;99.90
3628;DHT22;1830;49.000;12.074;2023-05-10T13:14:45;15.60;99.90
3628;DHT22;1830;49.000;12.074;2023-05-10T13:17:12;15.40;99.90
3628;DHT22;1830;49.000;12.074;2023-05-10T13:19:39;15.30;99.90
3628;DHT22;1830;49.000;12.074;2023-05-10T13:22:06;15.10;99.90
3628;DHT22;1830;49.000;12.074;2023-05-10T13:24:33;15.00;99.90
3628;DHT22;1830;49.000;12.074;2023-05-10T13:26:59;14.90;99.90
3628;DHT22;1830;49.000;12.074;2023-05-10T13:29:26;14.90;99.90
3628;DHT22;1830;49.000;12.074;2023-05-10T13:31:54;14.90;99.90
3628;DHT22;1830;49.000;12.074;2023-05-10T13:34:21;14.90;99.90
3628;DHT22;1830;49.000;12.074;2023-05-10T13:36:49;14.80;99.90
3628;DHT22;1830;49.000;12.074;2023-05-10T13:39:16;14.80;99.90
3628;DHT22;1830;49.000;12.074;2023-05-10T13:41:43;14.80;99.90
3628;DHT22;1830;49.000;12.074;2023-05-10T13:44:12;14.80;99.90
3628;DHT22;1830;49.000;12.074;2023-05-10T13:46:39;14.80;99.90
3628;DHT22;1830;49.000;12.074;2023-05-10T13:49:08;14.80;99.90
3628;DHT22;1830;49.000;12.074;2023-05-10T13:51:36;14.90;99.90
3628;DHT22;1830;49.000;12.074;2023-05-10T13:54:02;14.90;99.90
3628;DHT22;1830;49.000;12.074;2023-05-10T13:56:29;14.90;99.90
3628;DHT22;1830;49.000;12.074;2023-05-10T13:58:57;15.00;99.90
3628;DHT22;1830;49.000;12.074;2023-05-10T14:01:24;15.00;99.90
3628;DHT22;1830;49.000;12.074;2023-05-10T14:03:50;15.00;99.90
3628;DHT22;1830;49.000;12.074;2023-05-10T14:06:18;15.10;99.90
3628;DHT22;1830;49.000;12.074;2023-05-10T14:08:45;15.10;99.90
3628;DHT22;1830;49.000;12.074;2023-05-10T14:11:12;15.10;99.90
3628;DHT22;1830;49.000;12.074;2023-05-10T14:13:39;15.10;99.90
3628;DHT22;1830;49.000;12.074;2023-05-10T14:16:06;15.10;99.90
3628;DHT22;1830;49.000;12.074;2023-05-10T14:18:33;15.20;99.90
3628;DHT22;1830;49.000;12.074;2023-05-10T14:21:01;15.20;99.90
3628;DHT22;1830;49.000;12.074;2023-05-10T14:23:29;15.20;99.90
3628;DHT22;1830;49.000;12.074;2023-05-10T14:25:56;15.20;99.90
3628;DHT22;1830;49.000;12.074;2023-05-10T14:28:23;15.10;99.90
3628;DHT22;1830;49.000;12.074;2023-05-10T14:30:50;15.10;99.90
3628;DHT22;1830;49.000;12.074;2023-05-10T14:33:17;15.10;99.90
3628;DHT22;1830;49.000;12.074;2023-05-10T14:35:45;15.00;99.90
3628;DHT22;1830;49.000;12.074;2023-05-10T14:38:12;15.10;99.90
3628;DHT22;1830;49.000;12.074;2023-05-10T14:40:40;15.00;99.90
3628;DHT22;1830;49.000;12.074;2023-05-10T14:43:07;15.00;99.90
3628;DHT22;1830;49.000;12.074;2023-05-10T14:45:34;15.00;99.90
3628;DHT22;1830;49.000;12.074;2023-05-10T14:48:01;15.00;99.90
3628;DHT22;1830;49.000;12.074;2023-05-10T14:50:30;15.00;99.90
3628;DHT22;1830;49.000;12.074;2023-05-10T14:52:56;14.90;99.90
3628;DHT22;1830;49.000;12.074;2023-05-10T14:55:23;14.90;99.90
3628;DHT22;1830;49.000;12.074;2023-05-10T14:57:51;14.90;99.90
3628;DHT22;1830;49.000;12.074;2023-05-10T15:00:19;14.80;99.90
3628;DHT22;1830;49.000;12.074;2023-05-10T15:02:46;14.80;99.90
3628;DHT22;1830;49.000;12.074;2023-05-10T15:05:13;14.80;99.90
3628;DHT22;1830;49.000;12.074;2023-05-10T15:07:40;14.70;99.90
3628;DHT22;1830;49.000;12.074;2023-05-10T15:10:09;14.70;99.90
3628;DHT22;1830;49.000;12.074;2023-05-10T15:12:36;14.70;99.90
3628;DHT22;1830;49.000;12.074;2023-05-10T15:15:05;14.70;99.90
3628;DHT22;1830;49.000;12.074;2023-05-10T15:17:32;14.60;99.90
3628;DHT22;1830;49.000;12.074;2023-05-10T15:19:59;14.50;99.90
3628;DHT22;1830;49.000;12.074;2023-05-10T15:22:28;14.50;99.90
3628;DHT22;1830;49.000;12.074;2023-05-10T15:24:55;14.40;99.90
3628;DHT22;1830;49.000;12.074;2023-05-10T15:27:22;14.40;99.90
3628;DHT22;1830;49.000;12.074;2023-05-10T15:29:49;14.40;99.90
3628;DHT22;1830;49.000;12.074;2023-05-10T15:32:17;14.20;99.90
3628;DHT22;1830;49.000;12.074;2023-05-10T15:34:44;14.10;99.90
3628;DHT22;1830;49.000;12.074;2023-05-10T15:37:10;14.10;99.90
3628;DHT22;1830;49.000;12.074;2023-05-10T15:39:37;14.20;99.90
3628;DHT22;1830;49.000;12.074;2023-05-10T15:42:04;14.20;99.90
3628;DHT22;1830;49.000;12.074;2023-05-10T15:44:31;14.20;99.90
3628;DHT22;1830;49.000;12.074;2023-05-10T15:47:00;14.30;99.90
3628;DHT22;1830;49.000;12.074;2023-05-10T15:49:29;14.30;99.90
3628;DHT22;1830;49.000;12.074;2023-05-10T15:51:56;14.10;99.90
3628;DHT22;1830;49.000;12.074;2023-05-10T15:54:22;14.10;99.90
3628;DHT22;1830;49.000;12.074;2023-05-10T15:56:49;14.10;99.90
3628;DHT22;1830;49.000;12.074;2023-05-10T15:59:16;14.10;99.90
3628;DHT22;1830;49.000;12.074;2023-05-10T16:01:43;14.10;99.90
3628;DHT22;1830;49.000;12.074;2023-05-10T16:04:09;14.10;99.90
3628;DHT22;1830;49.000;12.074;2023-05-10T16:06:38;14.20;99.90
3628;DHT22;1830;49.000;12.074;2023-05-10T16:09:05;14.20;99.90
3628;DHT22;1830;49.000;12.074;2023-05-10T16:11:32;14.20;99.90
3628;DHT22;1830;49.000;12.074;2023-05-10T16:13:59;14.20;99.90
3628;DHT22;1830;49.000;12.074;2023-05-10T16:16:26;14.20;99.90
3628;DHT22;1830;49.000;12.074;2023-05-10T16:18:52;14.10;99.90